createdAt,value
2018-08-09T00:00:03.693Z,100755.27
2018-08-09T00:01:04.467Z,100756.13
2018-08-09T00:02:06.263Z,100756.59
2018-08-09T00:03:06.039Z,100757.11
2018-08-09T00:04:06.815Z,100757.62
2018-08-09T00:05:07.590Z,100758.16
2018-08-09T00:06:08.361Z,100758.43
2018-08-09T00:07:09.165Z,100758.63
2018-08-09T00:08:09.940Z,100758.45
2018-08-09T00:09:10.714Z,100757.94
2018-08-09T00:10:11.487Z,100757.66
2018-08-09T00:11:12.264Z,100756.67
2018-08-09T00:12:13.066Z,100756.05
2018-08-09T00:13:13.839Z,100755.53
2018-08-09T00:14:14.617Z,100754.97
2018-08-09T00:15:15.396Z,100754.36
2018-08-09T00:16:16.192Z,100753.41
2018-08-09T00:17:17.075Z,100753.20
2018-08-09T00:18:18.555Z,100752.42
2018-08-09T00:19:18.759Z,100751.98
2018-08-09T00:20:19.330Z,100751.27
2018-08-09T00:21:18.527Z,100750.83
2018-08-09T00:22:32.946Z,100754.41
2018-08-09T00:23:32.638Z,100742.89
2018-08-09T00:24:34.414Z,100743.05
2018-08-09T00:25:35.180Z,100742.97
2018-08-09T00:26:35.949Z,100743.17
2018-08-09T00:27:36.746Z,100742.66
2018-08-09T00:28:37.519Z,100743.17
2018-08-09T00:29:38.287Z,100742.97
2018-08-09T00:30:39.064Z,100742.97
2018-08-09T00:31:39.829Z,100743.17
2018-08-09T00:32:40.643Z,100742.62
2018-08-09T00:33:41.398Z,100742.20
2018-08-09T00:34:42.172Z,100741.95
2018-08-09T00:35:42.945Z,100742.00
2018-08-09T00:36:43.718Z,100742.32
2018-08-09T00:37:44.511Z,100742.09
2018-08-09T00:38:45.283Z,100741.61
2018-08-09T00:39:46.051Z,100740.83
2018-08-09T00:40:46.823Z,100740.89
2018-08-09T00:41:47.595Z,100740.20
2018-08-09T00:42:48.392Z,100739.93
2018-08-09T00:43:49.165Z,100740.08
2018-08-09T00:44:49.939Z,100739.89
2018-08-09T00:45:50.707Z,100739.73
2018-08-09T00:46:51.487Z,100739.78
2018-08-09T00:47:52.274Z,100739.59
2018-08-09T00:48:53.045Z,100738.84
2018-08-09T00:49:53.817Z,100738.56
2018-08-09T00:50:54.593Z,100738.09
2018-08-09T00:51:55.366Z,100737.43
2018-08-09T00:52:56.163Z,100736.66
2018-08-09T00:53:56.938Z,100736.49
2018-08-09T00:54:57.705Z,100735.94
2018-08-09T00:55:58.477Z,100735.98
2018-08-09T00:56:59.248Z,100735.81
2018-08-09T00:58:00.043Z,100735.25
2018-08-09T00:59:01.811Z,100734.91
2018-08-09T01:00:01.588Z,100734.09
2018-08-09T01:01:02.362Z,100732.80
2018-08-09T01:02:03.130Z,100732.13
2018-08-09T01:03:03.922Z,100731.08
2018-08-09T01:04:04.695Z,100730.08
2018-08-09T01:05:05.470Z,100730.17
2018-08-09T01:06:06.245Z,100729.39
2018-08-09T01:07:07.012Z,100728.45
2018-08-09T01:08:07.817Z,100727.67
2018-08-09T01:09:08.598Z,100726.81
2018-08-09T01:10:09.379Z,100726.59
2018-08-09T01:11:10.143Z,100726.16
2018-08-09T01:12:10.916Z,100725.59
2018-08-09T01:13:11.729Z,100724.75
2018-08-09T01:14:12.500Z,100724.00
2018-08-09T01:15:13.271Z,100723.23
2018-08-09T01:16:14.048Z,100722.98
2018-08-09T01:17:14.822Z,100722.85
2018-08-09T01:18:15.626Z,100722.51
2018-08-09T01:19:16.392Z,100722.46
2018-08-09T01:20:17.168Z,100722.83
2018-08-09T01:21:17.940Z,100722.61
2018-08-09T01:22:18.719Z,100722.80
2018-08-09T01:23:20.515Z,100722.76
2018-08-09T01:24:20.292Z,100722.95
2018-08-09T01:25:21.058Z,100722.47
2018-08-09T01:26:20.833Z,100722.49
2018-08-09T01:27:22.599Z,100722.52
2018-08-09T01:28:23.394Z,100722.64
2018-08-09T01:29:24.171Z,100722.55
2018-08-09T01:30:24.944Z,100722.30
2018-08-09T01:31:26.728Z,100722.10
2018-08-09T01:32:26.489Z,100721.93
2018-08-09T01:33:27.284Z,100721.42
2018-08-09T01:34:28.069Z,100720.83
2018-08-09T01:35:28.828Z,100720.23
2018-08-09T01:36:29.599Z,100719.50
2018-08-09T01:37:30.372Z,100718.89
2018-08-09T01:38:31.166Z,100719.01
2018-08-09T01:39:31.943Z,100718.84
2018-08-09T01:40:32.713Z,100718.32
2018-08-09T01:41:33.485Z,100717.77
2018-08-09T01:42:34.257Z,100717.00
2018-08-09T01:43:35.062Z,100715.82
2018-08-09T01:44:35.825Z,100714.67
2018-08-09T01:45:36.596Z,100713.62
2018-08-09T01:46:37.366Z,100712.88
2018-08-09T01:47:38.144Z,100712.34
2018-08-09T01:48:38.946Z,100711.55
2018-08-09T01:49:39.719Z,100711.28
2018-08-09T01:50:40.584Z,100710.55
2018-08-09T01:51:40.275Z,100709.75
2018-08-09T01:52:42.050Z,100709.11
2018-08-09T01:53:42.847Z,100708.52
2018-08-09T01:54:43.620Z,100707.69
2018-08-09T01:55:44.389Z,100706.72
2018-08-09T01:56:45.170Z,100705.81
2018-08-09T01:57:45.939Z,100704.95
2018-08-09T01:58:46.745Z,100704.56
2018-08-09T01:59:47.525Z,100704.83
2018-08-09T02:00:48.295Z,100704.02
2018-08-09T02:01:49.062Z,100703.46
2018-08-09T02:02:49.838Z,100702.83
2018-08-09T02:03:50.632Z,100701.94
2018-08-09T02:04:51.537Z,100701.30
2018-08-09T02:05:51.176Z,100700.44
2018-08-09T02:06:52.948Z,100699.14
2018-08-09T02:07:53.724Z,100698.25
2018-08-09T02:08:54.516Z,100696.95
2018-08-09T02:09:55.293Z,100695.73
2018-08-09T02:10:56.073Z,100695.02
2018-08-09T02:11:56.847Z,100694.02
2018-08-09T02:12:57.618Z,100693.20
2018-08-09T02:13:58.809Z,100692.61
2018-08-09T02:15:06.456Z,100691.83
2018-08-09T02:16:07.314Z,100681.14
2018-08-09T02:17:07.010Z,100681.22
2018-08-09T02:18:08.783Z,100681.09
2018-08-09T02:19:09.574Z,100681.16
2018-08-09T02:20:10.357Z,100681.24
2018-08-09T02:21:11.120Z,100681.32
2018-08-09T02:22:11.890Z,100681.08
2018-08-09T02:23:12.665Z,100680.75
2018-08-09T02:24:13.461Z,100680.55
2018-08-09T02:25:14.243Z,100680.11
2018-08-09T02:26:15.017Z,100678.81
2018-08-09T02:27:15.795Z,100678.10
2018-08-09T02:28:16.561Z,100676.80
2018-08-09T02:29:17.363Z,100675.58
2018-08-09T02:30:18.142Z,100674.77
2018-08-09T02:31:18.929Z,100674.11
2018-08-09T02:32:19.692Z,100673.34
2018-08-09T02:33:20.465Z,100672.61
2018-08-09T02:34:21.273Z,100672.02
2018-08-09T02:35:22.044Z,100670.67
2018-08-09T02:36:22.823Z,100670.20
2018-08-09T02:37:23.600Z,100669.79
2018-08-09T02:38:24.368Z,100669.33
2018-08-09T02:39:24.178Z,100669.47
2018-08-09T02:40:25.942Z,100668.86
2018-08-09T02:41:26.717Z,100668.08
2018-08-09T02:42:27.490Z,100667.21
2018-08-09T02:43:28.269Z,100666.50
2018-08-09T02:44:29.068Z,100665.89
2018-08-09T02:45:29.842Z,100665.38
2018-08-09T02:46:30.615Z,100664.25
2018-08-09T02:47:31.389Z,100662.95
2018-08-09T02:48:32.170Z,100662.50
2018-08-09T02:49:32.968Z,100661.63
2018-08-09T02:50:33.747Z,100660.73
2018-08-09T02:51:34.521Z,100660.22
2018-08-09T02:52:35.309Z,100659.48
2018-08-09T02:53:36.065Z,100659.27
2018-08-09T02:54:36.874Z,100658.77
2018-08-09T02:55:37.647Z,100658.13
2018-08-09T02:56:38.421Z,100657.57
2018-08-09T02:57:39.194Z,100656.67
2018-08-09T02:58:39.967Z,100655.88
2018-08-09T02:59:40.770Z,100654.80
2018-08-09T03:00:41.541Z,100653.23
2018-08-09T03:01:42.319Z,100651.92
2018-08-09T03:02:43.098Z,100650.75
2018-08-09T03:03:43.868Z,100650.02
2018-08-09T03:04:44.668Z,100649.20
2018-08-09T03:05:45.441Z,100648.50
2018-08-09T03:06:46.219Z,100648.34
2018-08-09T03:07:46.991Z,100647.95
2018-08-09T03:08:47.765Z,100647.13
2018-08-09T03:09:48.572Z,100646.31
2018-08-09T03:10:49.345Z,100645.40
2018-08-09T03:11:50.117Z,100644.81
2018-08-09T03:12:50.894Z,100644.03
2018-08-09T03:13:51.666Z,100643.42
2018-08-09T03:14:53.741Z,100642.80
2018-08-09T03:15:52.514Z,100642.19
2018-08-09T03:16:53.284Z,100641.48
2018-08-09T03:17:54.444Z,100641.33
2018-08-09T03:18:53.913Z,100640.52
2018-08-09T03:19:55.681Z,100640.45
2018-08-09T03:20:56.453Z,100639.64
2018-08-09T03:21:57.232Z,100639.56
2018-08-09T03:22:58.002Z,100638.29
2018-08-09T03:23:58.803Z,100637.26
2018-08-09T03:24:59.577Z,100636.23
2018-08-09T03:26:00.350Z,100634.69
2018-08-09T03:27:01.126Z,100633.31
2018-08-09T03:28:01.903Z,100632.21
2018-08-09T03:29:02.706Z,100630.97
2018-08-09T03:30:03.479Z,100629.69
2018-08-09T03:31:04.263Z,100628.16
2018-08-09T03:32:05.026Z,100627.02
2018-08-09T03:33:05.800Z,100626.09
2018-08-09T03:34:06.602Z,100624.94
2018-08-09T03:35:07.380Z,100623.75
2018-08-09T03:36:08.151Z,100623.20
2018-08-09T03:37:08.925Z,100622.63
2018-08-09T03:38:09.703Z,100622.43
2018-08-09T03:39:10.496Z,100622.66
2018-08-09T03:40:11.277Z,100621.91
2018-08-09T03:41:12.049Z,100621.80
2018-08-09T03:42:12.827Z,100621.84
2018-08-09T03:43:13.603Z,100621.86
2018-08-09T03:44:14.404Z,100621.75
2018-08-09T03:45:15.178Z,100621.42
2018-08-09T03:46:15.949Z,100621.69
2018-08-09T03:47:16.728Z,100621.84
2018-08-09T03:48:17.499Z,100621.30
2018-08-09T03:49:18.310Z,100621.45
2018-08-09T03:50:19.076Z,100620.97
2018-08-09T03:51:19.855Z,100620.87
2018-08-09T03:52:20.625Z,100620.35
2018-08-09T03:53:21.409Z,100619.86
2018-08-09T03:54:22.204Z,100619.34
2018-08-09T03:55:22.977Z,100619.24
2018-08-09T03:56:23.756Z,100619.06
2018-08-09T03:57:24.529Z,100618.41
2018-08-09T03:58:25.309Z,100618.13
2018-08-09T03:59:26.100Z,100618.03
2018-08-09T04:00:26.878Z,100617.77
2018-08-09T04:01:27.651Z,100617.91
2018-08-09T04:02:28.427Z,100617.88
2018-08-09T04:03:29.201Z,100617.73
2018-08-09T04:04:30.378Z,100617.83
2018-08-09T04:05:30.568Z,100618.30
2018-08-09T04:06:37.102Z,100615.90
2018-08-09T04:07:37.873Z,100612.64
2018-08-09T04:08:38.652Z,100612.98
2018-08-09T04:09:39.440Z,100612.86
2018-08-09T04:10:40.212Z,100613.52
2018-08-09T04:11:41.009Z,100613.98
2018-08-09T04:12:41.756Z,100614.48
2018-08-09T04:13:42.531Z,100615.19
2018-08-09T04:14:43.336Z,100615.83
2018-08-09T04:15:44.110Z,100616.32
2018-08-09T04:16:44.890Z,100616.78
2018-08-09T04:17:45.658Z,100617.38
2018-08-09T04:18:46.439Z,100617.97
2018-08-09T04:19:47.236Z,100618.05
2018-08-09T04:20:48.012Z,100619.02
2018-08-09T04:21:48.780Z,100619.31
2018-08-09T04:22:49.568Z,100619.98
2018-08-09T04:23:50.339Z,100620.73
2018-08-09T04:24:51.138Z,100620.66
2018-08-09T04:25:51.911Z,100621.17
2018-08-09T04:26:52.682Z,100621.27
2018-08-09T04:27:54.453Z,100621.71
2018-08-09T04:28:54.228Z,100622.11
2018-08-09T04:29:55.944Z,100622.08
2018-08-09T04:30:55.716Z,100622.34
2018-08-09T04:31:56.489Z,100622.78
2018-08-09T04:32:57.265Z,100622.48
2018-08-09T04:33:58.043Z,100621.92
2018-08-09T04:34:58.835Z,100621.34
2018-08-09T04:35:59.610Z,100621.52
2018-08-09T04:37:00.385Z,100620.97
2018-08-09T04:38:01.254Z,100620.57
2018-08-09T04:39:00.935Z,100620.09
2018-08-09T04:40:02.785Z,100619.63
2018-08-09T04:41:02.503Z,100619.39
2018-08-09T04:42:04.288Z,100619.66
2018-08-09T04:43:05.052Z,100619.23
2018-08-09T04:44:05.824Z,100618.89
2018-08-09T04:45:06.620Z,100618.27
2018-08-09T04:46:07.394Z,100617.66
2018-08-09T04:47:08.177Z,100617.75
2018-08-09T04:48:08.948Z,100617.59
2018-08-09T04:49:09.781Z,100617.22
2018-08-09T04:50:09.529Z,100617.25
2018-08-09T04:51:11.300Z,100616.59
2018-08-09T04:52:12.071Z,100616.86
2018-08-09T04:53:12.841Z,100616.41
2018-08-09T04:54:13.617Z,100616.47
2018-08-09T04:55:14.414Z,100616.83
2018-08-09T04:56:15.186Z,100617.39
2018-08-09T04:57:15.958Z,100617.75
2018-08-09T04:58:16.754Z,100618.07
2018-08-09T04:59:17.508Z,100618.31
2018-08-09T05:00:18.309Z,100619.05
2018-08-09T05:01:19.084Z,100619.48
2018-08-09T05:02:19.856Z,100619.89
2018-08-09T05:03:20.635Z,100619.92
2018-08-09T05:04:21.411Z,100620.69
2018-08-09T05:05:22.210Z,100620.65
2018-08-09T05:06:22.983Z,100621.20
2018-08-09T05:07:23.757Z,100621.67
2018-08-09T05:08:24.530Z,100622.14
2018-08-09T05:09:25.310Z,100622.79
2018-08-09T05:10:26.168Z,100623.08
2018-08-09T05:11:25.885Z,100622.91
2018-08-09T05:12:27.661Z,100623.44
2018-08-09T05:13:28.434Z,100623.77
2018-08-09T05:14:29.212Z,100624.00
2018-08-09T05:15:30.012Z,100624.71
2018-08-09T05:16:30.785Z,100624.54
2018-08-09T05:17:31.558Z,100624.53
2018-08-09T05:18:32.339Z,100624.48
2018-08-09T05:19:33.112Z,100624.54
2018-08-09T05:20:33.916Z,100624.89
2018-08-09T05:21:34.692Z,100624.91
2018-08-09T05:22:35.458Z,100625.20
2018-08-09T05:23:36.237Z,100625.24
2018-08-09T05:24:37.008Z,100624.77
2018-08-09T05:25:37.811Z,100623.94
2018-08-09T05:26:38.585Z,100623.63
2018-08-09T05:27:39.360Z,100623.50
2018-08-09T05:28:40.133Z,100623.23
2018-08-09T05:29:40.905Z,100623.42
2018-08-09T05:30:41.702Z,100624.00
2018-08-09T05:31:42.480Z,100624.53
2018-08-09T05:32:43.247Z,100624.88
2018-08-09T05:33:44.046Z,100625.73
2018-08-09T05:34:44.800Z,100625.04
2018-08-09T05:35:45.603Z,100625.07
2018-08-09T05:36:46.367Z,100624.79
2018-08-09T05:37:47.141Z,100624.48
2018-08-09T05:38:47.916Z,100625.02
2018-08-09T05:39:48.688Z,100624.88
2018-08-09T05:40:49.486Z,100624.81
2018-08-09T05:41:50.262Z,100624.38
2018-08-09T05:42:51.037Z,100623.53
2018-08-09T05:43:51.806Z,100622.84
2018-08-09T05:44:52.590Z,100621.81
2018-08-09T05:45:53.386Z,100620.52
2018-08-09T05:46:54.168Z,100619.03
2018-08-09T05:47:54.937Z,100617.41
2018-08-09T05:48:55.714Z,100616.11
2018-08-09T05:49:56.487Z,100614.43
2018-08-09T05:50:57.294Z,100612.41
2018-08-09T05:51:58.059Z,100610.20
2018-08-09T05:52:58.936Z,100607.87
2018-08-09T05:53:58.607Z,100605.73
2018-08-09T05:55:00.380Z,100602.88
2018-08-09T05:56:01.182Z,100601.14
2018-08-09T05:57:01.953Z,100599.33
2018-08-09T05:58:03.104Z,100596.81
2018-08-09T06:02:44.657Z,100549.58
2018-08-09T06:03:46.437Z,100547.42
2018-08-09T06:04:46.204Z,100547.59
2018-08-09T06:05:47.086Z,100548.16
2018-08-09T06:06:46.750Z,100549.08
2018-08-09T06:07:48.548Z,100550.02
2018-08-09T06:08:49.320Z,100551.29
2018-08-09T06:09:50.092Z,100552.44
2018-08-09T06:10:50.864Z,100554.17
2018-08-09T06:11:51.636Z,100555.19
2018-08-09T06:12:52.441Z,100555.55
2018-08-09T06:13:53.221Z,100555.92
2018-08-09T06:14:53.984Z,100556.47
2018-08-09T06:15:54.754Z,100556.45
2018-08-09T06:16:54.526Z,100556.98
2018-08-09T06:17:56.321Z,100557.51
2018-08-09T06:18:58.186Z,100558.00
2018-08-09T06:19:56.862Z,100557.59
2018-08-09T06:20:58.636Z,100557.59
2018-08-09T06:21:59.406Z,100556.72
2018-08-09T06:23:00.212Z,100555.78
2018-08-09T06:24:01.001Z,100554.12
2018-08-09T06:25:01.755Z,100552.42
2018-08-09T06:26:02.523Z,100550.77
2018-08-09T06:27:03.301Z,100549.13
2018-08-09T06:28:04.100Z,100547.30
2018-08-09T06:29:04.880Z,100545.34
2018-08-09T06:30:05.653Z,100543.94
2018-08-09T06:31:06.423Z,100541.82
2018-08-09T06:32:06.201Z,100539.77
2018-08-09T06:33:08.000Z,100537.35
2018-08-09T06:34:08.775Z,100534.38
2018-08-09T06:35:09.548Z,100531.30
2018-08-09T06:36:10.332Z,100529.08
2018-08-09T06:37:11.101Z,100527.52
2018-08-09T06:38:11.898Z,100525.73
2018-08-09T06:39:12.672Z,100523.48
2018-08-09T06:40:13.447Z,100522.31
2018-08-09T06:41:14.221Z,100520.38
2018-08-09T06:42:14.995Z,100519.11
2018-08-09T06:43:15.792Z,100517.84
2018-08-09T06:44:16.567Z,100516.31
2018-08-09T06:45:17.337Z,100514.93
2018-08-09T06:46:18.198Z,100513.89
2018-08-09T06:47:17.898Z,100512.06
2018-08-09T06:48:19.694Z,100510.41
2018-08-09T06:49:20.467Z,100508.32
2018-08-09T06:50:21.241Z,100506.18
2018-08-09T06:51:22.012Z,100504.25
2018-08-09T06:52:22.785Z,100502.11
2018-08-09T06:53:23.583Z,100500.05
2018-08-09T06:54:25.364Z,100497.94
2018-08-09T06:55:25.129Z,100497.07
2018-08-09T06:56:25.975Z,100495.70
2018-08-09T06:57:25.675Z,100494.33
2018-08-09T06:58:27.477Z,100493.17
2018-08-09T06:59:28.251Z,100491.37
2018-08-09T07:00:29.026Z,100489.72
2018-08-09T07:01:29.802Z,100488.32
2018-08-09T07:02:30.584Z,100486.95
2018-08-09T07:03:31.373Z,100486.02
2018-08-09T07:04:32.156Z,100484.57
2018-08-09T07:05:32.919Z,100483.06
2018-08-09T07:06:33.692Z,100481.59
2018-08-09T07:07:34.469Z,100480.39
2018-08-09T07:08:35.349Z,100478.84
2018-08-09T07:09:35.053Z,100477.96
2018-08-09T07:10:36.837Z,100476.98
2018-08-09T07:11:37.600Z,100476.47
2018-08-09T07:12:38.406Z,100476.09
2018-08-09T07:13:39.178Z,100475.33
2018-08-09T07:14:39.953Z,100474.40
2018-08-09T07:15:40.727Z,100473.73
2018-08-09T07:16:41.501Z,100473.20
2018-08-09T07:17:42.282Z,100472.73
2018-08-09T07:18:43.077Z,100472.63
2018-08-09T07:19:43.852Z,100472.37
2018-08-09T07:20:44.626Z,100472.61
2018-08-09T07:21:45.401Z,100472.66
2018-08-09T07:22:46.177Z,100473.64
2018-08-09T07:23:46.975Z,100473.66
2018-08-09T07:24:47.982Z,100473.72
2018-08-09T07:25:47.926Z,100473.91
2018-08-09T07:26:48.860Z,100473.89
2018-08-09T07:27:49.796Z,100473.94
2018-08-09T07:28:50.813Z,100473.95
2018-08-09T07:29:50.733Z,100473.81
2018-08-09T07:30:51.669Z,100473.77
2018-08-09T07:31:52.621Z,100473.13
2018-08-09T07:32:53.573Z,100472.79
2018-08-09T07:33:54.331Z,100472.56
2018-08-09T07:34:55.289Z,100472.55
2018-08-09T07:35:56.189Z,100472.47
2018-08-09T07:36:57.044Z,100472.27
2018-08-09T07:37:58.976Z,100471.70
2018-08-09T07:38:59.064Z,100470.82
2018-08-09T07:39:58.969Z,100470.20
2018-08-09T07:40:59.845Z,100468.92
2018-08-09T07:42:00.743Z,100467.69
2018-08-09T07:43:01.439Z,100466.59
2018-08-09T07:44:03.234Z,100465.44
2018-08-09T07:45:04.007Z,100464.91
2018-08-09T07:46:05.029Z,100464.53
2018-08-09T07:47:04.922Z,100463.81
2018-08-09T07:48:05.796Z,100463.45
2018-08-09T07:49:06.815Z,100463.34
2018-08-09T07:50:06.751Z,100462.68
2018-08-09T07:51:07.664Z,100462.36
2018-08-09T07:52:08.618Z,100462.20
2018-08-09T07:53:09.573Z,100462.27
2018-08-09T07:54:10.608Z,100461.95
2018-08-09T07:55:10.492Z,100462.08
2018-08-09T07:56:11.388Z,100461.89
2018-08-09T07:57:12.309Z,100461.43
2018-08-09T07:58:13.198Z,100461.66
2018-08-09T07:59:14.319Z,100461.11
2018-08-09T08:00:14.236Z,100460.58
2018-08-09T08:01:15.173Z,100460.04
2018-08-09T08:02:16.117Z,100458.98
2018-08-09T08:03:17.033Z,100457.83
2018-08-09T08:04:19.126Z,100456.86
2018-08-09T08:05:18.018Z,100456.38
2018-08-09T08:06:18.983Z,100455.53
2018-08-09T08:07:19.818Z,100454.45
2018-08-09T08:08:20.814Z,100453.84
2018-08-09T08:09:21.852Z,100452.73
2018-08-09T08:10:21.715Z,100451.31
2018-08-09T08:11:22.647Z,100450.67
2018-08-09T08:12:23.581Z,100450.27
2018-08-09T08:13:24.478Z,100449.42
2018-08-09T08:14:25.630Z,100448.42
2018-08-09T08:15:25.548Z,100447.17
2018-08-09T08:16:26.459Z,100446.50
2018-08-09T08:17:27.153Z,100445.80
2018-08-09T08:18:28.923Z,100444.73
2018-08-09T08:19:30.100Z,100443.53
2018-08-09T08:20:28.997Z,100441.94
2018-08-09T08:21:29.691Z,100440.37
2018-08-09T08:22:31.466Z,100438.61
2018-08-09T08:23:32.237Z,100436.91
2018-08-09T08:24:33.036Z,100435.16
2018-08-09T08:25:33.813Z,100433.55
2018-08-09T08:26:34.605Z,100432.01
2018-08-09T08:27:35.365Z,100430.88
2018-08-09T08:28:36.135Z,100429.03
2018-08-09T08:29:36.943Z,100427.17
2018-08-09T08:30:37.710Z,100425.39
2018-08-09T08:31:38.485Z,100423.96
2018-08-09T08:32:39.257Z,100422.98
2018-08-09T08:33:40.038Z,100421.81
2018-08-09T08:34:40.944Z,100420.47
2018-08-09T08:35:40.615Z,100419.47
2018-08-09T08:36:42.390Z,100418.45
2018-08-09T08:37:43.166Z,100417.19
2018-08-09T08:38:43.941Z,100416.12
2018-08-09T08:39:44.737Z,100414.94
2018-08-09T08:40:45.890Z,100414.97
2018-08-09T08:41:47.298Z,100413.75
2018-08-09T08:44:51.105Z,100406.63
2018-08-09T08:45:51.883Z,100406.14
2018-08-09T08:46:52.649Z,100406.34
2018-08-09T08:47:53.437Z,100406.34
2018-08-09T08:48:54.209Z,100406.52
2018-08-09T08:49:55.008Z,100406.94
2018-08-09T08:50:55.780Z,100406.84
2018-08-09T08:51:56.550Z,100406.98
2018-08-09T08:52:57.382Z,100406.98
2018-08-09T08:53:57.153Z,100406.70
2018-08-09T08:54:57.930Z,100406.11
2018-08-09T08:55:59.702Z,100406.05
2018-08-09T08:57:00.476Z,100405.17
2018-08-09T08:58:01.248Z,100404.76
2018-08-09T08:59:02.020Z,100404.16
2018-08-09T09:00:02.827Z,100402.95
2018-08-09T09:01:03.694Z,100402.50
2018-08-09T09:02:03.380Z,100401.50
2018-08-09T09:03:05.148Z,100400.80
2018-08-09T09:04:05.927Z,100399.48
2018-08-09T09:05:06.825Z,100398.45
2018-08-09T09:06:06.497Z,100397.31
2018-08-09T09:07:08.345Z,100396.27
2018-08-09T09:08:08.047Z,100394.09
2018-08-09T09:09:09.813Z,100392.87
2018-08-09T09:10:10.689Z,100391.18
2018-08-09T09:11:10.427Z,100389.66
2018-08-09T09:12:12.199Z,100387.66
2018-08-09T09:13:12.973Z,100386.06
2018-08-09T09:14:13.746Z,100384.30
2018-08-09T09:15:14.543Z,100381.70
2018-08-09T09:16:15.318Z,100379.00
2018-08-09T09:17:16.098Z,100376.05
2018-08-09T09:18:16.863Z,100372.24
2018-08-09T09:19:17.704Z,100368.95
2018-08-09T09:20:17.434Z,100365.70
2018-08-09T09:21:19.223Z,100362.20
2018-08-09T09:22:20.020Z,100358.28
2018-08-09T09:23:20.789Z,100355.27
2018-08-09T09:24:21.560Z,100351.77
2018-08-09T09:25:22.356Z,100348.89
2018-08-09T09:26:23.134Z,100346.26
2018-08-09T09:27:23.902Z,100343.70
2018-08-09T09:28:24.672Z,100341.41
2018-08-09T09:29:25.451Z,100337.91
2018-08-09T09:30:26.246Z,100334.52
2018-08-09T09:31:27.060Z,100330.60
2018-08-09T09:32:26.815Z,100327.07
2018-08-09T09:33:28.675Z,100323.50
2018-08-09T09:34:28.370Z,100320.34
2018-08-09T09:35:30.171Z,100316.73
2018-08-09T09:36:30.943Z,100312.83
2018-08-09T09:37:31.716Z,100309.22
2018-08-09T09:38:32.489Z,100305.37
2018-08-09T09:39:33.268Z,100301.86
2018-08-09T09:40:34.056Z,100298.05
2018-08-09T09:41:34.832Z,100294.27
2018-08-09T09:42:35.606Z,100290.52
2018-08-09T09:43:36.387Z,100286.59
2018-08-09T09:44:37.156Z,100282.73
2018-08-09T09:45:37.956Z,100278.88
2018-08-09T09:46:38.729Z,100275.27
2018-08-09T09:47:39.510Z,100271.44
2018-08-09T09:48:40.274Z,100267.20
2018-08-09T09:49:41.086Z,100263.50
2018-08-09T09:50:41.848Z,100259.33
2018-08-09T09:51:42.617Z,100255.53
2018-08-09T09:52:43.395Z,100251.93
2018-08-09T09:53:44.166Z,100248.37
2018-08-09T09:54:44.941Z,100244.97
2018-08-09T09:55:45.734Z,100240.95
2018-08-09T09:56:46.511Z,100237.38
2018-08-09T09:57:47.278Z,100233.98
2018-08-09T09:58:48.061Z,100229.44
2018-08-09T09:59:48.825Z,100225.91
2018-08-09T10:00:49.630Z,100221.92
2018-08-09T10:01:50.468Z,100218.31
2018-08-09T10:02:51.178Z,100214.32
2018-08-09T10:03:51.948Z,100211.50
2018-08-09T10:04:52.727Z,100207.86
2018-08-09T10:05:53.524Z,100204.58
2018-08-09T10:06:54.297Z,100201.28
2018-08-09T10:07:55.071Z,100197.38
2018-08-09T10:08:55.854Z,100194.27
2018-08-09T10:09:56.625Z,100190.91
2018-08-09T10:10:57.424Z,100188.25
2018-08-09T10:11:58.191Z,100185.69
2018-08-09T10:12:58.970Z,100182.33
2018-08-09T10:13:59.737Z,100179.66
2018-08-09T10:15:00.511Z,100177.34
2018-08-09T10:16:01.319Z,100175.66
2018-08-09T10:17:02.091Z,100173.98
2018-08-09T10:18:02.864Z,100172.00
2018-08-09T10:19:03.634Z,100170.30
2018-08-09T10:20:04.409Z,100168.58
2018-08-09T10:21:05.204Z,100166.86
2018-08-09T10:22:05.977Z,100164.80
2018-08-09T10:23:06.752Z,100163.17
2018-08-09T10:24:07.528Z,100161.73
2018-08-09T10:25:08.301Z,100161.08
2018-08-09T10:26:09.103Z,100159.98
2018-08-09T10:27:09.876Z,100159.02
2018-08-09T10:28:10.654Z,100158.69
2018-08-09T10:29:11.428Z,100157.42
2018-08-09T10:30:12.200Z,100156.42
2018-08-09T10:31:13.001Z,100154.78
2018-08-09T10:32:13.777Z,100153.82
2018-08-09T10:33:14.555Z,100153.02
2018-08-09T10:34:15.331Z,100151.78
2018-08-09T10:35:16.105Z,100150.34
2018-08-09T10:36:16.901Z,100149.14
2018-08-09T10:37:17.675Z,100147.73
2018-08-09T10:38:18.453Z,100146.89
2018-08-09T10:39:19.603Z,100145.94
2018-08-09T10:40:19.786Z,100146.13
2018-08-09T10:41:18.995Z,100145.59
2018-08-09T10:42:19.179Z,100144.83
2018-08-09T10:43:19.368Z,100144.66
2018-08-09T10:44:19.552Z,100143.58
2018-08-09T10:45:19.757Z,100142.28
2018-08-09T10:48:32.660Z,100131.03
2018-08-09T10:49:33.433Z,100130.97
2018-08-09T10:50:34.204Z,100130.57
2018-08-09T10:51:34.998Z,100130.03
2018-08-09T10:52:35.775Z,100129.09
2018-08-09T10:53:36.542Z,100128.80
2018-08-09T10:54:37.315Z,100128.31
2018-08-09T10:55:38.099Z,100126.99
2018-08-09T10:56:38.882Z,100126.22
2018-08-09T10:57:39.657Z,100124.91
2018-08-09T10:58:40.429Z,100124.17
2018-08-09T10:59:41.201Z,100123.59
2018-08-09T11:00:41.976Z,100122.52
2018-08-09T11:01:42.803Z,100120.81
2018-08-09T11:02:43.545Z,100119.11
2018-08-09T11:03:44.319Z,100118.44
2018-08-09T11:04:45.085Z,100117.02
2018-08-09T11:05:45.858Z,100116.56
2018-08-09T11:06:46.654Z,100115.63
2018-08-09T11:07:47.426Z,100115.17
2018-08-09T11:08:48.205Z,100114.43
2018-08-09T11:09:48.982Z,100113.43
2018-08-09T11:10:49.765Z,100112.28
2018-08-09T11:11:50.556Z,100110.70
2018-08-09T11:12:51.332Z,100109.61
2018-08-09T11:13:51.100Z,100108.41
2018-08-09T11:14:52.876Z,100108.09
2018-08-09T11:15:53.658Z,100107.63
2018-08-09T11:16:54.469Z,100107.63
2018-08-09T11:17:55.226Z,100105.94
2018-08-09T11:18:56.003Z,100104.83
2018-08-09T11:19:56.775Z,100104.02
2018-08-09T11:20:57.555Z,100103.25
2018-08-09T11:21:58.350Z,100102.70
2018-08-09T11:22:59.125Z,100101.34
2018-08-09T11:23:59.899Z,100100.06
2018-08-09T11:25:00.678Z,100098.91
2018-08-09T11:26:01.447Z,100097.78
2018-08-09T11:27:02.253Z,100096.15
2018-08-09T11:28:03.027Z,100093.91
2018-08-09T11:29:03.802Z,100091.36
2018-08-09T11:30:04.582Z,100089.53
2018-08-09T11:31:05.353Z,100088.45
2018-08-09T11:32:06.160Z,100086.98
2018-08-09T11:33:06.928Z,100085.22
2018-08-09T11:34:07.722Z,100082.80
2018-08-09T11:35:07.480Z,100080.55
2018-08-09T11:36:09.253Z,100078.52
2018-08-09T11:37:10.059Z,100076.20
2018-08-09T11:38:10.830Z,100073.84
2018-08-09T11:39:11.603Z,100070.86
2018-08-09T11:40:12.375Z,100067.98
2018-08-09T11:41:13.159Z,100066.22